Time;durP1;ratioP1;P1;durP2;ratioP2;P2;SDS_P1;SDS_P2;PMS_P1;PMS_P2;Temp;Humidity;BMP_temperature;BMP_pressure;BME280_temperature;BME280_humidity;BME280_pressure;Samples;Min_cycle;Max_cycle;Signal;HPM_P1;HPM_P2
2020/12/10 00:00:16;;;;;;;21.20;3.63;;;;;;;7.41;100.00;99354.63;5056325;28;20027;-90
2020/12/10 00:02:42;;;;;;;15.95;3.92;;;;;;;7.40;100.00;99358.19;5056498;28;20025;-89
2020/12/10 00:05:08;;;;;;;16.70;4.35;;;;;;;7.41;100.00;99366.84;5060133;28;20034;-89
2020/12/10 00:07:38;;;;;;;22.90;3.83;;;;;;;7.41;100.00;99361.63;5059090;28;20102;-91
2020/12/10 00:10:08;;;;;;;16.23;4.00;;;;;;;7.41;100.00;99365.03;5059471;28;20472;-90
2020/12/10 00:12:42;;;;;;;18.40;3.42;;;;;;;7.40;100.00;99363.41;5065280;28;20015;-92
2020/12/10 00:15:08;;;;;;;19.77;3.63;;;;;;;7.43;100.00;99375.34;5101272;28;20052;-86
2020/12/10 00:17:37;;;;;;;25.40;3.63;;;;;;;7.42;100.00;99374.53;5083665;28;20033;-87
2020/12/10 00:20:07;;;;;;;22.02;4.20;;;;;;;7.43;100.00;99373.56;5064497;28;20021;-88
2020/12/10 00:22:34;;;;;;;25.10;3.95;;;;;;;7.43;100.00;99373.56;5063455;28;20020;-89
2020/12/10 00:25:00;;;;;;;23.05;2.90;;;;;;;7.44;100.00;99387.44;5064979;28;20048;-91
2020/12/10 00:27:26;;;;;;;26.90;3.55;;;;;;;7.44;100.00;99375.19;5061497;28;20024;-88
2020/12/10 00:29:56;;;;;;;20.08;3.17;;;;;;;7.44;100.00;99385.63;5062771;28;20028;-88
2020/12/10 00:32:23;;;;;;;18.10;3.35;;;;;;;7.45;100.00;99384.66;5063206;28;20036;-90
2020/12/10 00:34:48;;;;;;;16.92;3.17;;;;;;;7.46;100.00;99380.28;5064143;28;20032;-88
2020/12/10 00:37:14;;;;;;;19.77;3.33;;;;;;;7.45;100.00;99382.06;5085468;28;20030;-88
2020/12/10 00:39:40;;;;;;;19.48;3.20;;;;;;;7.47;100.00;99392.34;5071562;28;20020;-86
2020/12/10 00:42:06;;;;;;;21.23;3.60;;;;;;;7.47;100.00;99384.50;5088087;28;20159;-86
2020/12/10 00:44:32;;;;;;;22.38;3.78;;;;;;;7.47;100.00;99389.72;5070332;28;20507;-87
2020/12/10 00:46:58;;;;;;;23.58;3.35;;;;;;;7.46;100.00;99380.28;5069119;28;20115;-89
2020/12/10 00:49:23;;;;;;;24.55;3.75;;;;;;;7.45;100.00;99374.22;5068862;28;20093;-89
2020/12/10 00:51:49;;;;;;;17.85;2.50;;;;;;;7.46;100.00;99375.06;5087621;28;20039;-88
2020/12/10 00:54:15;;;;;;;14.57;2.60;;;;;;;7.45;100.00;99376.03;5067755;28;20046;-88
2020/12/10 00:56:41;;;;;;;14.70;2.38;;;;;;;7.44;100.00;99375.19;5073810;28;20024;-86
2020/12/10 00:59:07;;;;;;;17.80;2.65;;;;;;;7.43;100.00;99372.75;5071310;28;20040;-87
2020/12/10 01:01:33;;;;;;;9.93;2.63;;;;;;;7.42;100.00;99371.13;5066458;28;20029;-89
2020/12/10 01:03:58;;;;;;;17.58;3.35;;;;;;;7.42;100.00;99381.56;5061895;28;20043;-87
2020/12/10 01:06:24;;;;;;;15.70;2.72;;;;;;;7.42;100.00;99384.97;5062522;28;20025;-87
2020/12/10 01:08:49;;;;;;;16.85;2.60;;;;;;;7.41;100.00;99393.75;5060102;28;20467;-91
2020/12/10 01:11:15;;;;;;;22.90;2.70;;;;;;;7.40;100.00;99384.28;5058572;28;20032;-88
2020/12/10 01:13:41;;;;;;;11.93;2.15;;;;;;;7.41;100.00;99387.72;5057340;28;20082;-90
2020/12/10 01:16:07;;;;;;;17.23;2.50;;;;;;;7.41;100.00;99387.72;5057505;28;20048;-89
2020/12/10 01:18:32;;;;;;;19.92;2.45;;;;;;;7.41;100.00;99387.72;5058206;28;20031;-91
2020/12/10 01:20:58;;;;;;;17.27;2.60;;;;;;;7.41;100.00;99388.53;5057631;28;20036;-89
2020/12/10 01:23:23;;;;;;;22.83;2.65;;;;;;;7.41;100.00;99382.50;5057615;28;20040;-90
2020/12/10 01:25:49;;;;;;;15.70;3.05;;;;;;;7.42;100.00;99387.59;5059021;28;20021;-88
2020/12/10 01:28:14;;;;;;;18.00;3.03;;;;;;;7.42;100.00;99392.81;5076920;28;20028;-91
2020/12/10 01:30:40;;;;;;;16.02;2.90;;;;;;;7.42;100.00;99389.38;5061805;28;20090;-89
2020/12/10 01:33:05;;;;;;;17.23;2.42;;;;;;;7.42;100.00;99395.41;5058941;28;20024;-90
2020/12/10 01:35:30;;;;;;;16.80;2.83;;;;;;;7.44;100.00;99397.88;5059678;28;20032;-89
2020/12/10 01:37:56;;;;;;;18.50;2.72;;;;;;;7.43;100.00;99401.44;5059511;28;20123;-90
2020/12/10 01:40:21;;;;;;;22.73;2.83;;;;;;;7.43;100.00;99398.84;5058565;28;20024;-90
2020/12/10 01:42:47;;;;;;;19.25;2.63;;;;;;;7.44;100.00;99401.28;5078730;28;20392;-89
2020/12/10 01:45:12;;;;;;;17.98;2.83;;;;;;;7.45;100.00;99409.94;5059212;28;20039;-90
2020/12/10 01:47:38;;;;;;;18.05;2.75;;;;;;;7.46;100.00;99408.97;5056791;28;20069;-89
2020/12/10 01:50:04;;;;;;;25.48;3.67;;;;;;;7.47;100.00;99410.59;5056928;28;20032;-90
2020/12/10 01:52:29;;;;;;;21.75;2.92;;;;;;;7.47;100.00;99414.03;5057415;28;20055;-89
2020/12/10 01:54:55;;;;;;;24.27;3.42;;;;;;;7.47;100.00;99416.63;5057095;28;20166;-91
2020/12/10 01:57:20;;;;;;;22.42;2.80;;;;;;;7.47;100.00;99415.81;5056689;28;20024;-90
2020/12/10 01:59:48;;;;;;;22.08;2.63;;;;;;;7.49;100.00;99419.09;5056641;28;20364;-89
2020/12/10 02:02:14;;;;;;;23.77;4.10;;;;;;;7.47;100.00;99421.84;5074575;28;20024;-91
2020/12/10 02:04:39;;;;;;;21.08;3.05;;;;;;;7.47;100.00;99419.25;5056584;28;20074;-88
2020/12/10 02:07:06;;;;;;;13.98;3.20;;;;;;;7.48;100.00;99418.28;5074066;28;20025;-90
2020/12/10 02:09:32;;;;;;;20.35;2.90;;;;;;;7.49;100.00;99426.91;5057227;28;20024;-89
2020/12/10 02:11:57;;;;;;;23.77;3.17;;;;;;;7.48;100.00;99422.69;5057023;28;20601;-89
2020/12/10 02:14:30;;;;;;;23.13;3.58;;;;;;;7.48;100.00;99433.09;5056641;28;20024;-89
2020/12/10 02:16:55;;;;;;;18.05;3.28;;;;;;;7.49;100.00;99445.19;5074002;28;20110;-89
2020/12/10 02:19:21;;;;;;;16.38;3.33;;;;;;;7.49;100.00;99440.78;5056325;28;20032;-89
2020/12/10 02:21:47;;;;;;;20.58;4.22;;;;;;;7.50;100.00;99442.41;5061664;28;20033;-87
2020/12/10 02:24:14;;;;;;;17.20;3.13;;;;;;;7.50;100.00;99436.38;5066835;28;20115;-87
2020/12/10 02:26:40;;;;;;;17.02;3.60;;;;;;;7.52;100.00;99452.69;5059827;28;20032;-89
2020/12/10 02:29:05;;;;;;;23.00;4.63;;;;;;;7.51;100.00;99451.88;5074246;28;20024;-89
2020/12/10 02:31:31;;;;;;;15.38;3.72;;;;;;;7.52;100.00;99447.47;5073605;28;20032;-90
2020/12/10 02:33:58;;;;;;;12.27;3.38;;;;;;;7.51;100.00;99457.09;5073957;28;20028;-89
2020/12/10 02:36:24;;;;;;;22.13;4.38;;;;;;;7.52;100.00;99450.09;5055585;28;20032;-88
2020/12/10 02:38:49;;;;;;;18.77;3.88;;;;;;;7.53;100.00;99448.31;5055645;28;20035;-88
2020/12/10 02:41:15;;;;;;;21.58;4.40;;;;;;;7.52;100.00;99455.31;5055646;28;20355;-90
2020/12/10 02:43:41;;;;;;;13.98;4.10;;;;;;;7.53;100.00;99454.34;5055948;28;20028;-89
2020/12/10 02:46:07;;;;;;;21.88;4.47;;;;;;;7.52;100.00;99455.31;5073177;28;20024;-88
2020/12/10 02:48:32;;;;;;;15.23;4.45;;;;;;;7.53;100.00;99459.56;5073591;28;20029;-89
2020/12/10 02:51:00;;;;;;;17.00;4.03;;;;;;;7.55;100.00;99462.00;5073328;28;20488;-89
2020/12/10 02:53:28;;;;;;;23.48;5.47;;;;;;;7.56;100.00;99469.69;5072732;28;20104;-89
2020/12/10 02:55:54;;;;;;;18.17;5.00;;;;;;;7.57;100.00;99467.91;5055745;28;20024;-90
2020/12/10 02:58:21;;;;;;;19.13;4.60;;;;;;;7.58;100.00;99466.94;5055235;28;20032;-88
2020/12/10 03:00:46;;;;;;;24.10;4.60;;;;;;;7.58;100.00;99469.56;5055121;28;20029;-89
2020/12/10 03:03:12;;;;;;;21.70;4.25;;;;;;;7.59;100.00;99477.25;5055899;28;20070;-90
2020/12/10 03:05:37;;;;;;;22.95;4.47;;;;;;;7.59;100.00;99477.25;5055153;28;20055;-90
2020/12/10 03:08:02;;;;;;;34.35;5.00;;;;;;;7.59;100.00;99479.84;5054933;28;20108;-89
2020/12/10 03:10:28;;;;;;;24.80;5.10;;;;;;;7.61;100.00;99482.31;5072491;28;20054;-89
2020/12/10 03:12:53;;;;;;;21.85;5.10;;;;;;;7.61;100.00;99484.91;5054825;28;20067;-87
2020/12/10 03:15:18;;;;;;;23.70;4.70;;;;;;;7.60;100.00;99489.31;5055135;28;20464;-88
2020/12/10 03:17:44;;;;;;;16.48;4.10;;;;;;;7.60;100.00;99486.72;5055520;28;20024;-90
2020/12/10 03:20:09;;;;;;;20.83;4.72;;;;;;;7.62;100.00;99491.78;5055420;28;20090;-88
2020/12/10 03:22:35;;;;;;;18.45;3.92;;;;;;;7.62;100.00;99497.81;5055411;28;20051;-90
2020/12/10 03:25:00;;;;;;;24.35;4.13;;;;;;;7.63;100.00;99501.25;5054424;28;20541;-89
2020/12/10 03:27:26;;;;;;;20.77;3.67;;;;;;;7.64;100.00;99503.69;5072669;28;20522;-91
2020/12/10 03:29:52;;;;;;;29.83;6.18;;;;;;;7.64;100.00;99495.88;5054903;28;20087;-89
2020/12/10 03:32:17;;;;;;;27.15;4.18;;;;;;;7.64;100.00;99498.47;5054425;28;20025;-88
2020/12/10 03:34:43;;;;;;;29.38;4.00;;;;;;;7.64;100.00;99502.88;5054512;28;20471;-88
2020/12/10 03:37:08;;;;;;;21.67;3.38;;;;;;;7.64;100.00;99502.88;5054485;28;20028;-88
2020/12/10 03:39:33;;;;;;;21.13;3.88;;;;;;;7.64;100.00;99513.31;5054761;28;20024;-88
2020/12/10 03:41:59;;;;;;;13.55;3.70;;;;;;;7.63;100.00;99507.28;5072432;28;20111;-90
2020/12/10 03:44:26;;;;;;;18.15;3.40;;;;;;;7.63;100.00;99520.31;5054764;28;20048;-89
2020/12/10 03:46:52;;;;;;;23.73;3.63;;;;;;;7.63;100.00;99522.94;5054342;28;20108;-89
2020/12/10 03:49:17;;;;;;;25.15;3.50;;;;;;;7.63;100.00;99520.31;5054016;28;20115;-88
2020/12/10 03:51:43;;;;;;;20.92;3.15;;;;;;;7.64;100.00;99524.56;5072503;28;20020;-89
2020/12/10 03:54:08;;;;;;;19.02;3.60;;;;;;;7.64;100.00;99529.78;5054693;28;20025;-90
2020/12/10 03:56:34;;;;;;;18.77;3.05;;;;;;;7.65;100.00;99523.59;5054626;28;20092;-88
2020/12/10 03:59:00;;;;;;;19.77;3.30;;;;;;;7.65;100.00;99526.22;5054560;28;20487;-89
2020/12/10 04:01:27;;;;;;;26.30;4.55;;;;;;;7.66;100.00;99525.25;5054226;28;20040;-89
2020/12/10 04:03:52;;;;;;;19.55;3.88;;;;;;;7.65;100.00;99515.78;5054289;28;20103;-88
2020/12/10 04:06:18;;;;;;;21.02;3.67;;;;;;;7.65;100.00;99517.56;5054531;28;20024;-88
2020/12/10 04:08:43;;;;;;;13.25;3.95;;;;;;;7.64;100.00;99511.53;5054247;28;20031;-90
2020/12/10 04:11:09;;;;;;;19.00;4.68;;;;;;;7.63;100.00;99509.06;5054054;28;20024;-90
2020/12/10 04:13:34;;;;;;;14.70;3.50;;;;;;;7.62;100.00;99515.25;5054211;28;20086;-88
2020/12/10 04:16:01;;;;;;;16.75;3.40;;;;;;;7.60;100.00;99525.84;5054125;28;20055;-88
2020/12/10 04:18:27;;;;;;;18.25;3.70;;;;;;;7.60;100.00;99522.41;5053981;28;20052;-88
2020/12/10 04:20:52;;;;;;;17.35;3.08;;;;;;;7.60;100.00;99519.81;5054382;28;20063;-89
2020/12/10 04:23:18;;;;;;;12.35;3.30;;;;;;;7.60;100.00;99530.25;5054316;28;20070;-89
2020/12/10 04:25:43;;;;;;;18.65;4.00;;;;;;;7.60;100.00;99525.84;5072266;28;20141;-88
2020/12/10 04:28:08;;;;;;;10.88;3.30;;;;;;;7.59;100.00;99531.22;5072414;28;20375;-89
2020/12/10 04:30:34;;;;;;;14.13;3.42;;;;;;;7.60;100.00;99520.63;5055007;28;20557;-89
2020/12/10 04:33:00;;;;;;;15.30;3.90;;;;;;;7.60;100.00;99520.63;5057781;28;20048;-89
2020/12/10 04:35:25;;;;;;;18.92;3.13;;;;;;;7.59;100.00;99516.38;5075315;28;20025;-90
2020/12/10 04:37:51;;;;;;;12.82;3.45;;;;;;;7.59;100.00;99518.19;5076752;28;20092;-87
2020/12/10 04:40:16;;;;;;;15.68;2.90;;;;;;;7.58;100.00;99514.75;5069461;28;20447;-87
2020/12/10 04:42:43;;;;;;;29.00;3.40;;;;;;;7.59;100.00;99513.78;5062211;28;20028;-88
2020/12/10 04:45:09;;;;;;;24.38;4.05;;;;;;;7.59;100.00;99520.78;5056935;28;20020;-87
2020/12/10 04:47:36;;;;;;;22.48;3.40;;;;;;;7.60;100.00;99525.03;5060598;28;20077;-87
2020/12/10 04:50:03;;;;;;;22.50;4.10;;;;;;;7.58;100.00;99527.78;5062326;28;20028;-88
2020/12/10 04:52:29;;;;;;;25.17;4.18;;;;;;;7.59;100.00;99531.22;5062473;28;20115;-88
2020/12/10 04:54:55;;;;;;;22.15;3.70;;;;;;;7.58;100.00;99526.97;5080092;28;20096;-88
2020/12/10 04:57:22;;;;;;;18.60;3.63;;;;;;;7.57;100.00;99531.34;5061790;28;20158;-88
2020/12/10 04:59:48;;;;;;;21.98;3.45;;;;;;;7.57;100.00;99526.13;5082477;28;20024;-86
2020/12/10 05:02:13;;;;;;;33.65;5.13;;;;;;;7.57;100.00;99533.94;5069285;28;20039;-89
2020/12/10 05:04:41;;;;;;;29.25;5.10;;;;;;;7.59;100.00;99539.06;5078357;28;20029;-88
2020/12/10 05:07:07;;;;;;;33.92;4.68;;;;;;;7.58;100.00;99521.75;5061561;28;20111;-88
2020/12/10 05:09:33;;;;;;;24.17;5.15;;;;;;;7.58;100.00;99530.41;5079111;28;20459;-89
2020/12/10 05:11:59;;;;;;;22.13;4.68;;;;;;;7.58;100.00;99533.00;5059480;28;20081;-88
2020/12/10 05:14:24;;;;;;;27.90;5.60;;;;;;;7.57;100.00;99531.34;5074985;28;20386;-87
2020/12/10 05:17:11;;;;;;;29.77;6.10;;;;;;;7.57;100.00;99547.00;5057239;28;20041;-89
2020/12/10 05:19:36;;;;;;;30.45;5.70;;;;;;;7.58;100.00;99553.06;5057383;28;20393;-89
2020/12/10 05:22:03;;;;;;;33.25;5.80;;;;;;;7.58;100.00;99556.50;5057536;28;20033;-89
2020/12/10 05:24:30;;;;;;;25.13;5.72;;;;;;;7.59;100.00;99563.34;5057531;28;20033;-89
2020/12/10 05:27:17;;;;;;;30.73;7.05;;;;;;;7.58;100.00;99564.31;5074746;28;20016;-90
2020/12/10 05:29:44;;;;;;;41.10;6.78;;;;;;;7.58;100.00;99564.31;5056760;28;20094;-91
2020/12/10 05:32:37;;;;;;;27.85;6.60;;;;;;;7.58;100.00;99572.16;5056960;28;20021;-90
2020/12/10 05:35:36;;;;;;;26.88;6.85;;;;;;;7.57;100.00;99573.09;5056803;28;20502;-90
2020/12/10 05:38:08;;;;;;;20.52;5.40;;;;;;;7.57;100.00;99575.72;5002873;28;20025;-89
2020/12/10 05:40:34;;;;;;;22.15;6.05;;;;;;;7.57;100.00;99567.06;5056658;28;20063;-89
2020/12/10 05:42:59;;;;;;;20.08;5.20;;;;;;;7.57;100.00;99578.31;5074896;28;20101;-89
2020/12/10 05:45:25;;;;;;;24.40;5.63;;;;;;;7.57;100.00;99580.94;5056785;28;20044;-89
2020/12/10 05:47:52;;;;;;;17.98;5.57;;;;;;;7.59;100.00;99586.84;5056696;28;20025;-90
2020/12/10 05:50:26;;;;;;;20.70;5.32;;;;;;;7.60;100.00;99585.06;5057000;28;20032;-90
2020/12/10 05:52:59;;;;;;;20.95;6.82;;;;;;;7.59;100.00;99579.00;5056473;28;20059;-91
2020/12/10 05:55:24;;;;;;;22.40;7.25;;;;;;;7.59;100.00;99578.19;5057723;28;20092;-89
2020/12/10 05:57:50;;;;;;;22.13;7.03;;;;;;;7.59;100.00;99570.38;5067941;28;20115;-86
2020/12/10 06:00:16;;;;;;;26.90;7.70;;;;;;;7.58;100.00;99572.16;5072769;28;20052;-87
2020/12/10 06:02:42;;;;;;;23.45;7.60;;;;;;;7.57;100.00;99574.88;5089707;28;20017;-88
2020/12/10 06:05:08;;;;;;;28.83;8.15;;;;;;;7.58;100.00;99581.78;5057298;28;20032;-89
2020/12/10 06:07:34;;;;;;;27.83;8.68;;;;;;;7.57;100.00;99575.72;5059297;28;20052;-90
2020/12/10 06:09:59;;;;;;;21.30;7.78;;;;;;;7.56;100.00;99584.50;5056481;28;20078;-91
2020/12/10 06:12:25;;;;;;;45.83;9.43;;;;;;;7.56;100.00;99584.50;5074395;28;20068;-90
2020/12/10 06:14:55;;;;;;;32.65;10.48;;;;;;;7.55;100.00;99590.69;5056164;28;20046;-89
2020/12/10 06:17:21;;;;;;;26.35;11.27;;;;;;;7.56;100.00;99591.50;5057897;28;20047;-88
2020/12/10 06:19:48;;;;;;;30.75;11.02;;;;;;;7.52;100.00;99591.00;5056863;28;20115;-90
2020/12/10 06:22:26;;;;;;;28.90;10.23;;;;;;;7.49;100.00;99589.50;5056016;28;20480;-88
2020/12/10 06:24:54;;;;;;;27.83;10.77;;;;;;;7.44;100.00;99598.75;5056635;28;20120;-88
2020/12/10 06:27:25;;;;;;;26.38;9.90;;;;;;;7.39;100.00;99598.34;5056728;28;20094;-88
2020/12/10 06:30:10;;;;;;;28.10;10.75;;;;;;;7.31;100.00;99596.50;5056089;28;20206;-88
2020/12/10 06:32:49;;;;;;;26.88;10.15;;;;;;;7.25;100.00;99599.66;5056157;28;20036;-89
2020/12/10 06:35:34;;;;;;;36.40;13.43;;;;;;;7.17;100.00;99600.41;5056226;28;20036;-88
2020/12/10 06:38:05;;;;;;;37.13;12.93;;;;;;;7.10;100.00;99607.19;5056734;28;20068;-87
2020/12/10 06:40:36;;;;;;;49.47;14.88;;;;;;;7.05;100.00;99614.59;5055938;28;20391;-89
2020/12/10 06:43:04;;;;;;;57.38;16.50;;;;;;;6.98;100.00;99618.75;5056375;28;20032;-88
2020/12/10 06:45:36;;;;;;;60.72;16.55;;;;;;;6.94;100.00;99627.00;5055873;28;20025;-90
2020/12/10 06:48:09;;;;;;;71.78;19.50;;;;;;;6.91;100.00;99620.28;5073214;28;20024;-89
2020/12/10 06:50:38;;;;;;;88.55;19.17;;;;;;;6.88;100.00;99608.38;5068803;28;20054;-87
2020/12/10 06:53:18;;;;;;;93.43;20.95;;;;;;;6.85;100.00;99600.84;5056236;28;20028;-89
2020/12/10 06:56:00;;;;;;;102.13;21.83;;;;;;;6.84;100.00;99617.44;5058212;28;20029;-89
2020/12/10 06:58:34;;;;;;;103.40;21.60;;;;;;;6.82;100.00;99611.56;5055183;28;20024;-89
2020/12/10 07:01:17;;;;;;;119.22;23.83;;;;;;;6.81;100.00;99612.53;5055934;28;20036;-89
2020/12/10 07:03:43;;;;;;;121.60;26.52;;;;;;;6.80;100.00;99608.28;5073154;28;20549;-89
2020/12/10 07:06:19;;;;;;;131.57;25.90;;;;;;;6.78;100.00;99609.34;5055707;28;20387;-90
2020/12/10 07:09:14;;;;;;;116.68;24.98;;;;;;;6.76;100.00;99600.88;5055309;28;20118;-90
2020/12/10 07:11:43;;;;;;;;;;;;;;;6.73;100.00;99606.38;5053080;28;20442;-90
2020/12/10 07:14:25;;;;;;;123.07;24.45;;;;;;;6.72;100.00;99600.34;5055510;28;20061;-91
2020/12/10 07:16:52;;;;;;;128.85;24.58;;;;;;;6.72;100.00;99609.94;5074528;28;20109;-90
2020/12/10 07:19:18;;;;;;;124.10;24.95;;;;;;;6.71;100.00;99605.69;5055814;28;20032;-90
2020/12/10 07:21:44;;;;;;;112.07;24.02;;;;;;;6.71;100.00;99603.91;5055493;28;20369;-88
2020/12/10 07:24:10;;;;;;;102.65;24.23;;;;;;;6.71;100.00;99597.88;5058720;28;20468;-90
2020/12/10 07:26:36;;;;;;;108.55;24.02;;;;;;;6.70;100.00;99599.66;5059313;28;20047;-90
2020/12/10 07:29:02;;;;;;;115.15;23.77;;;;;;;6.69;100.00;99592.81;5056375;28;20158;-88
2020/12/10 07:31:27;;;;;;;101.32;23.48;;;;;;;6.68;100.00;99604.19;5057531;28;20059;-89
2020/12/10 07:33:57;;;;;;;87.63;23.05;;;;;;;6.67;100.00;99606.94;5055687;28;20070;-89
2020/12/10 07:36:23;;;;;;;104.53;22.83;;;;;;;6.66;100.00;99608.72;5057248;28;20028;-87
2020/12/10 07:38:50;;;;;;;102.20;23.85;;;;;;;6.67;100.00;99617.38;5055589;28;20044;-90
2020/12/10 07:41:16;;;;;;;95.90;23.42;;;;;;;6.64;100.00;99625.47;5055305;28;20096;-88
2020/12/10 07:43:45;;;;;;;101.35;24.30;;;;;;;6.61;100.00;99623.94;5055408;28;20056;-88
2020/12/10 07:46:10;;;;;;;113.78;24.33;;;;;;;6.58;100.00;99617.25;5055492;28;20030;-90
2020/12/10 07:48:37;;;;;;;102.03;23.30;;;;;;;6.58;100.00;99622.44;5055819;28;20028;-89
2020/12/10 07:51:02;;;;;;;97.93;24.83;;;;;;;6.57;100.00;99610.38;5055241;28;20032;-88
2020/12/10 07:53:28;;;;;;;107.82;23.10;;;;;;;6.58;100.00;99614.63;5057070;28;20036;-88
2020/12/10 07:56:00;;;;;;;80.50;21.80;;;;;;;6.59;100.00;99615.44;5078142;28;20028;-89
2020/12/10 07:58:43;;;;;;;88.65;21.10;;;;;;;6.61;100.00;99621.34;5058938;28;20050;-87
2020/12/10 08:01:09;;;;;;;86.13;20.15;;;;;;;6.63;100.00;99623.81;5058816;28;20128;-90
2020/12/10 08:03:56;;;;;;;79.20;20.77;;;;;;;6.65;100.00;99624.50;5061638;28;20035;-88
2020/12/10 08:06:28;;;;;;;74.47;19.27;;;;;;;6.68;100.00;99627.66;5056434;28;20432;-90
2020/12/10 08:08:59;;;;;;;80.03;19.30;;;;;;;6.71;100.00;99621.31;5056182;28;20033;-88
2020/12/10 08:11:25;;;;;;;88.18;20.70;;;;;;;6.75;100.00;99620.06;5055421;28;20415;-87
2020/12/10 08:13:57;;;;;;;86.18;21.92;;;;;;;6.78;100.00;99611.97;5055080;28;20043;-88
2020/12/10 08:16:24;;;;;;;82.82;18.27;;;;;;;6.79;100.00;99608.41;5055912;28;20052;-88
2020/12/10 08:18:50;;;;;;;77.30;18.20;;;;;;;6.79;100.00;99614.44;5057534;28;20127;-89
2020/12/10 08:21:32;;;;;;;85.95;20.40;;;;;;;6.79;100.00;99611.84;5055248;28;20028;-87
2020/12/10 08:23:57;;;;;;;68.40;19.30;;;;;;;6.81;100.00;99612.53;5059880;28;20119;-89
2020/12/10 08:26:23;;;;;;;62.70;18.52;;;;;;;6.84;100.00;99622.66;5058878;28;20089;-90
2020/12/10 08:28:56;;;;;;;77.35;19.60;;;;;;;6.88;100.00;99617.97;5059081;28;20024;-88
2020/12/10 08:31:24;;;;;;;46.95;16.15;;;;;;;6.89;100.00;99619.59;5058348;28;20025;-88
2020/12/10 08:33:51;;;;;;;48.15;14.38;;;;;;;6.90;100.00;99629.88;5058922;28;20127;-88
2020/12/10 08:36:34;;;;;;;52.88;15.65;;;;;;;6.95;100.00;99632.09;5058646;28;20033;-89
2020/12/10 08:39:03;;;;;;;44.92;15.13;;;;;;;7.00;100.00;99642.09;5076647;28;20055;-88
2020/12/10 08:41:34;;;;;;;46.30;14.73;;;;;;;7.03;100.00;99647.81;5059402;28;20103;-88
2020/12/10 08:44:03;;;;;;;61.70;16.55;;;;;;;7.08;100.00;99652.59;5062624;28;20030;-88
2020/12/10 08:46:30;;;;;;;39.08;14.68;;;;;;;7.10;100.00;99646.31;5059586;28;20064;-88
2020/12/10 08:48:57;;;;;;;38.55;14.10;;;;;;;7.12;100.00;99653.97;5059718;28;20455;-88
2020/12/10 08:51:36;;;;;;;35.17;11.98;;;;;;;7.16;100.00;99656.16;5058317;28;20032;-88
2020/12/10 08:54:01;;;;;;;29.70;11.68;;;;;;;7.22;100.00;99654.75;5058444;28;20090;-89
2020/12/10 08:56:34;;;;;;;25.55;10.63;;;;;;;7.25;100.00;99658.84;5076223;28;20029;-89
2020/12/10 08:59:00;;;;;;;25.95;9.82;;;;;;;7.29;100.00;99660.22;5058884;28;20093;-88
2020/12/10 09:01:25;;;;;;;21.92;9.73;;;;;;;7.32;100.00;99654.69;5059520;28;20040;-87
2020/12/10 09:03:51;;;;;;;24.60;12.57;;;;;;;7.35;100.00;99660.44;5058896;28;20035;-88
2020/12/10 09:06:16;;;;;;;21.23;10.43;;;;;;;7.36;100.00;99656.03;5058864;28;20058;-87
2020/12/10 09:08:42;;;;;;;26.50;10.13;;;;;;;7.37;100.00;99655.91;5059273;28;20123;-88
2020/12/10 09:11:08;;;;;;;17.73;8.52;;;;;;;7.36;100.00;99654.25;5059920;28;20040;-90
2020/12/10 09:13:34;;;;;;;18.95;9.30;;;;;;;7.35;100.00;99660.44;5061606;28;20069;-89
2020/12/10 09:15:59;;;;;;;16.50;9.02;;;;;;;7.32;100.00;99655.53;5079218;28;20052;-88
2020/12/10 09:18:25;;;;;;;18.33;9.82;;;;;;;7.31;100.00;99653.06;5098410;28;20024;-88
2020/12/10 09:20:51;;;;;;;19.55;9.45;;;;;;;7.29;100.00;99655.81;5078691;28;20478;-88
2020/12/10 09:23:20;;;;;;;15.68;8.52;;;;;;;7.27;100.00;99647.31;5082590;28;20024;-90
2020/12/10 09:25:45;;;;;;;15.27;7.57;;;;;;;7.28;100.00;99646.34;5082788;28;20020;-90
2020/12/10 09:28:11;;;;;;;14.43;7.75;;;;;;;7.30;100.00;99649.63;5081207;28;20020;-87
2020/12/10 09:30:38;;;;;;;14.23;7.20;;;;;;;7.32;100.00;99649.47;5074978;28;20028;-90
2020/12/10 09:33:04;;;;;;;13.95;7.65;;;;;;;7.34;100.00;99650.16;5086861;28;20028;-87
2020/12/10 09:35:36;;;;;;;13.57;7.03;;;;;;;7.35;100.00;99649.19;5083544;28;20028;-89
2020/12/10 09:38:03;;;;;;;10.43;6.13;;;;;;;7.37;100.00;99652.47;5067549;28;20021;-88
2020/12/10 09:40:30;;;;;;;14.45;7.35;;;;;;;7.38;100.00;99651.50;5085666;28;20112;-89
2020/12/10 09:42:56;;;;;;;13.98;6.75;;;;;;;7.40;100.00;99644.34;5070745;28;20024;-88
2020/12/10 09:45:21;;;;;;;16.13;7.80;;;;;;;7.40;100.00;99645.16;5089935;28;20490;-88
2020/12/10 09:47:47;;;;;;;15.55;7.03;;;;;;;7.42;100.00;99640.66;5090602;28;20058;-89
2020/12/10 09:50:37;;;;;;;80.32;13.15;;;;;;;7.43;100.00;99639.69;5086293;28;20028;-87
2020/12/10 09:58:12;;;;;;;13.05;5.95;;;;;;;7.40;100.00;99636.53;5109897;28;20035;-86
2020/12/10 10:00:38;;;;;;;14.68;6.95;;;;;;;7.41;100.00;99631.16;5091122;28;20024;-88
2020/12/10 10:03:06;;;;;;;10.25;5.63;;;;;;;7.44;100.00;99630.88;5090890;28;20058;-89
2020/12/10 10:05:33;;;;;;;9.60;5.35;;;;;;;7.44;100.00;99630.88;5090157;28;20028;-89
2020/12/10 10:07:58;;;;;;;6.75;3.80;;;;;;;7.46;100.00;99633.34;5087711;28;20024;-89
2020/12/10 10:10:25;;;;;;;6.78;3.90;;;;;;;7.46;100.00;99639.38;5088387;28;20031;-88
2020/12/10 10:12:50;;;;;;;8.27;4.80;;;;;;;7.43;100.00;99636.25;5108246;28;20020;-88
2020/12/10 10:15:17;;;;;;;9.52;5.50;;;;;;;7.43;100.00;99621.41;5088909;28;20086;-87
2020/12/10 10:17:43;;;;;;;11.40;6.07;;;;;;;7.43;100.00;99618.81;5086121;28;20043;-89
2020/12/10 10:20:09;;;;;;;10.73;5.47;;;;;;;7.45;100.00;99614.25;5087646;28;20038;-89
2020/12/10 10:22:38;;;;;;;9.18;4.95;;;;;;;7.45;100.00;99618.66;5085528;28;20056;-90
2020/12/10 10:25:05;;;;;;;9.45;4.95;;;;;;;7.45;100.00;99621.28;5081556;28;20024;-90
2020/12/10 10:27:30;;;;;;;7.63;3.92;;;;;;;7.44;100.00;99620.44;5081861;28;20024;-89
2020/12/10 10:29:56;;;;;;;6.57;3.67;;;;;;;7.43;100.00;99615.38;5086116;28;20028;-90
2020/12/10 10:32:21;;;;;;;10.73;4.75;;;;;;;7.43;100.00;99615.38;5084588;28;20059;-88
2020/12/10 10:34:47;;;;;;;5.68;3.53;;;;;;;7.42;100.00;99611.13;5084987;28;20035;-89
2020/12/10 10:37:12;;;;;;;8.00;3.30;;;;;;;7.42;100.00;99605.91;5084282;28;20034;-90
2020/12/10 10:39:38;;;;;;;4.70;2.80;;;;;;;7.42;100.00;99598.09;5082513;28;20027;-91
2020/12/10 10:42:05;;;;;;;6.28;3.28;;;;;;;7.43;100.00;99597.13;5071463;28;20058;-87
2020/12/10 10:44:30;;;;;;;5.60;2.97;;;;;;;7.44;100.00;99596.16;5082107;28;20024;-90
2020/12/10 10:46:56;;;;;;;4.93;2.88;;;;;;;7.45;100.00;99589.97;5080818;28;20026;-91
2020/12/10 10:49:21;;;;;;;5.43;3.10;;;;;;;7.45;100.00;99588.16;5077970;28;20060;-91
2020/12/10 10:51:47;;;;;;;5.60;2.97;;;;;;;7.47;100.00;99588.03;5079550;28;20028;-90
2020/12/10 10:54:13;;;;;;;6.40;3.40;;;;;;;7.47;100.00;99585.41;5083639;28;20089;-91
2020/12/10 10:56:38;;;;;;;7.25;4.25;;;;;;;7.48;100.00;99584.44;5085136;28;20028;-89
2020/12/10 10:59:04;;;;;;;6.22;3.72;;;;;;;7.49;100.00;99576.47;5084163;28;20493;-90
2020/12/10 11:01:29;;;;;;;6.53;3.30;;;;;;;7.53;100.00;99570.94;5083058;28;20047;-89
2020/12/10 11:03:56;;;;;;;7.47;3.05;;;;;;;7.55;100.00;99563.78;5077930;28;20475;-88
2020/12/10 11:06:22;;;;;;;5.00;2.75;;;;;;;7.60;100.00;99554.56;5078631;28;20016;-88
2020/12/10 11:08:47;;;;;;;5.35;2.95;;;;;;;7.64;100.00;99552.47;5076943;28;20039;-90
2020/12/10 11:11:23;;;;;;;5.50;2.60;;;;;;;7.65;100.00;99544.47;5073596;28;20024;-88
2020/12/10 11:13:48;;;;;;;7.85;2.40;;;;;;;7.68;100.00;99538.13;5067247;28;20021;-90
2020/12/10 11:16:15;;;;;;;4.25;2.67;;;;;;;7.70;100.00;99523.13;5058343;28;20334;-88
2020/12/10 11:18:42;;;;;;;4.32;2.70;;;;;;;7.71;100.00;99512.53;5056439;28;20059;-88
2020/12/10 11:21:08;;;;;;;4.88;2.78;;;;;;;7.73;100.00;99508.03;5058566;28;20032;-89
2020/12/10 11:23:33;;;;;;;8.07;2.72;;;;;;;7.73;100.00;99499.34;5057433;28;20020;-89
2020/12/10 11:25:59;;;;;;;5.45;3.17;;;;;;;7.71;100.00;99486.44;5058497;28;20117;-89
2020/12/10 11:28:25;;;;;;;8.48;4.07;;;;;;;7.68;100.00;99481.53;5057420;28;20021;-89
2020/12/10 11:30:51;;;;;;;6.43;3.42;;;;;;;7.65;100.00;99478.41;5056562;28;20390;-91